createdAt,value
2023-03-18T00:00:13.059Z,62.04
2023-03-18T00:05:36.174Z,62.31
2023-03-18T00:10:39.788Z,62.40
2023-03-18T00:15:42.735Z,62.63
2023-03-18T00:20:46.003Z,62.52
2023-03-18T00:25:53.036Z,62.44
2023-03-18T00:31:01.688Z,62.73
2023-03-18T00:36:06.562Z,62.69
2023-03-18T00:41:16.027Z,62.87
2023-03-18T00:46:24.550Z,63.06
2023-03-18T00:51:31.539Z,62.91
2023-03-18T00:56:37.802Z,63.03
2023-03-18T01:01:40.838Z,62.90
2023-03-18T01:06:43.740Z,62.65
2023-03-18T01:11:46.620Z,62.74
2023-03-18T01:16:49.735Z,63.03
2023-03-18T01:21:52.790Z,62.90
2023-03-18T01:26:57.012Z,62.83
2023-03-18T01:32:00.517Z,62.99
2023-03-18T01:37:03.565Z,62.76
2023-03-18T01:42:06.659Z,62.78
2023-03-18T01:47:10.699Z,63.03
2023-03-18T01:52:23.326Z,62.99
2023-03-18T01:57:28.386Z,63.19
2023-03-18T02:02:32.965Z,63.19
2023-03-18T02:07:37.308Z,63.13
2023-03-18T02:12:46.261Z,63.18
2023-03-18T02:18:10.833Z,63.27
2023-03-18T02:23:36.743Z,63.15
2023-03-18T02:28:41.564Z,63.09
2023-03-18T02:33:46.945Z,63.24
2023-03-18T02:38:50.005Z,63.27
2023-03-18T02:43:53.883Z,63.15
2023-03-18T02:48:59.342Z,63.37
2023-03-18T02:54:10.262Z,63.31
2023-03-18T02:59:13.817Z,63.29
2023-03-18T03:04:18.394Z,63.31
2023-03-18T03:09:22.674Z,63.28
2023-03-18T03:14:25.618Z,63.09
2023-03-18T03:19:28.701Z,63.00
2023-03-18T03:24:32.113Z,63.22
2023-03-18T03:29:35.706Z,63.02
2023-03-18T03:34:38.698Z,63.08
2023-03-18T03:39:41.587Z,63.13
2023-03-18T03:44:44.581Z,63.37
2023-03-18T03:49:47.780Z,63.35
2023-03-18T03:54:50.827Z,63.38
2023-03-18T03:59:54.085Z,63.63
2023-03-18T04:04:57.013Z,63.63
2023-03-18T04:10:00.530Z,63.63
2023-03-18T04:15:04.264Z,63.60
2023-03-18T04:20:08.230Z,63.42
2023-03-18T04:25:12.398Z,63.60
2023-03-18T04:30:15.474Z,63.63
2023-03-18T04:35:19.880Z,63.51
2023-03-18T04:40:23.125Z,63.33
2023-03-18T04:45:26.070Z,63.28
2023-03-18T04:50:29.469Z,63.42
2023-03-18T04:55:34.119Z,63.17
2023-03-18T05:00:37.498Z,63.07
2023-03-18T05:05:40.469Z,63.01
2023-03-18T05:10:43.398Z,62.78
2023-03-18T05:15:46.348Z,62.71
2023-03-18T05:20:49.300Z,62.42
2023-03-18T05:25:52.408Z,62.19
2023-03-18T05:30:55.631Z,61.91
2023-03-18T05:35:58.736Z,60.90
2023-03-18T05:41:01.640Z,60.44
2023-03-18T05:46:05.361Z,60.60
2023-03-18T05:51:08.237Z,60.17
2023-03-18T05:56:12.377Z,59.83
2023-03-18T06:01:15.275Z,59.61
2023-03-18T06:06:18.994Z,59.37
2023-03-18T06:11:22.388Z,58.68
2023-03-18T06:16:25.917Z,58.90
2023-03-18T06:21:29.382Z,58.26
2023-03-18T06:26:32.293Z,58.02
2023-03-18T06:31:35.692Z,57.90
2023-03-18T06:36:38.845Z,57.47
2023-03-18T06:41:41.790Z,56.53
2023-03-18T06:46:44.812Z,56.13
2023-03-18T06:51:48.748Z,55.66
2023-03-18T06:56:51.853Z,55.90
2023-03-18T07:01:55.251Z,55.33
2023-03-18T07:06:58.313Z,55.22
2023-03-18T07:12:01.717Z,54.74
2023-03-18T07:17:04.579Z,54.69
2023-03-18T07:22:07.683Z,54.39
2023-03-18T07:27:13.381Z,53.98
2023-03-18T07:32:17.065Z,53.72
2023-03-18T07:37:20.752Z,52.31
2023-03-18T07:42:23.894Z,51.36
2023-03-18T07:47:26.811Z,50.39
2023-03-18T07:52:30.052Z,49.81
2023-03-18T07:57:36.820Z,50.09
2023-03-18T08:02:40.856Z,49.95
2023-03-18T08:07:43.794Z,48.47
2023-03-18T08:12:53.238Z,48.06
2023-03-18T08:17:56.642Z,48.48
2023-03-18T08:22:59.493Z,47.29
2023-03-18T08:28:02.881Z,47.88
2023-03-18T08:33:05.978Z,46.66
2023-03-18T08:38:09.920Z,46.78
2023-03-18T08:43:13.545Z,47.40
2023-03-18T08:48:16.406Z,45.84
2023-03-18T08:53:19.821Z,45.21
2023-03-18T08:58:22.651Z,44.92
2023-03-18T09:03:25.684Z,44.26
2023-03-18T09:08:30.842Z,43.87
2023-03-18T09:13:34.239Z,44.06
2023-03-18T09:18:37.647Z,43.78
2023-03-18T09:23:41.607Z,44.00
2023-03-18T09:28:44.488Z,42.96
2023-03-18T09:33:47.822Z,41.56
2023-03-18T09:38:50.710Z,42.28
2023-03-18T09:44:10.981Z,42.28
2023-03-18T09:49:49.580Z,41.99
2023-03-18T09:55:10.530Z,41.40
2023-03-18T10:00:24.442Z,41.35
2023-03-18T10:05:56.864Z,41.13
2023-03-18T10:11:12.370Z,40.65
2023-03-18T10:16:25.921Z,41.21
2023-03-18T10:22:05.452Z,40.37
2023-03-18T10:27:42.766Z,40.07
2023-03-18T10:33:04.053Z,40.16
2023-03-18T10:38:29.688Z,40.19
2023-03-18T10:43:34.239Z,40.10
2023-03-18T10:48:50.348Z,40.22
2023-03-18T10:54:13.786Z,40.42
2023-03-18T10:59:20.983Z,40.99
2023-03-18T11:04:24.627Z,40.37
2023-03-18T11:09:39.335Z,39.95
2023-03-18T11:14:49.642Z,39.62
2023-03-18T11:20:11.593Z,39.61
2023-03-18T11:25:18.127Z,39.39
2023-03-18T11:30:34.376Z,39.29
2023-03-18T11:35:50.150Z,39.58
2023-03-18T11:40:53.225Z,39.56
2023-03-18T11:46:09.379Z,39.53
2023-03-18T11:51:49.270Z,40.24
2023-03-18T11:58:03.386Z,39.86
2023-03-18T12:03:35.630Z,39.80
2023-03-18T12:09:09.023Z,40.60
2023-03-18T12:14:42.436Z,38.73
2023-03-18T12:20:13.819Z,38.57
2023-03-18T12:26:02.033Z,38.71
2023-03-18T12:31:52.729Z,38.19
2023-03-18T12:37:31.975Z,37.97
2023-03-18T12:43:02.413Z,38.01
2023-03-18T12:48:14.340Z,37.92
2023-03-18T12:53:28.756Z,37.26
2023-03-18T12:58:39.869Z,38.04
2023-03-18T13:04:02.941Z,37.30
2023-03-18T13:09:28.018Z,36.49
2023-03-18T13:15:16.767Z,36.09
2023-03-18T13:20:29.949Z,36.03
2023-03-18T13:26:08.883Z,36.71
2023-03-18T13:31:33.139Z,35.99
2023-03-18T13:37:13.540Z,35.78
2023-03-18T13:42:43.100Z,36.04
2023-03-18T13:47:46.463Z,36.89
2023-03-18T13:52:49.704Z,36.38
2023-03-18T13:58:11.039Z,36.99
2023-03-18T14:03:24.941Z,36.69
2023-03-18T14:08:50.170Z,36.58
2023-03-18T14:14:03.136Z,36.13
2023-03-18T14:19:11.228Z,36.28
2023-03-18T14:24:24.647Z,36.65
2023-03-18T14:29:47.303Z,37.76
2023-03-18T14:35:02.502Z,37.76
2023-03-18T14:40:17.811Z,37.65
2023-03-18T14:45:28.505Z,38.29
2023-03-18T14:50:52.844Z,38.65
2023-03-18T14:55:58.971Z,39.09
2023-03-18T15:01:09.602Z,39.56
2023-03-18T15:06:21.767Z,39.47
2023-03-18T15:11:25.433Z,39.80
2023-03-18T15:16:33.612Z,40.18
2023-03-18T15:21:37.681Z,40.45
2023-03-18T15:26:42.490Z,41.01
2023-03-18T15:31:47.711Z,41.20
2023-03-18T15:37:22.108Z,41.83
2023-03-18T15:42:26.634Z,42.38
2023-03-18T15:47:35.872Z,42.79
2023-03-18T15:52:43.056Z,43.24
2023-03-18T15:57:45.893Z,43.56
2023-03-18T16:02:50.661Z,43.75
2023-03-18T16:07:54.235Z,43.88
2023-03-18T16:13:02.313Z,43.89
2023-03-18T16:18:05.315Z,44.29
2023-03-18T16:23:08.360Z,44.33
2023-03-18T16:28:25.060Z,44.49
2023-03-18T16:33:28.192Z,44.92
2023-03-18T16:38:34.426Z,45.40
2023-03-18T16:43:37.352Z,45.78
2023-03-18T16:48:40.498Z,46.08
2023-03-18T16:53:43.858Z,46.40
2023-03-18T16:58:46.772Z,46.92
2023-03-18T17:03:49.705Z,47.15
2023-03-18T17:08:53.554Z,47.57
2023-03-18T17:13:56.443Z,47.83
2023-03-18T17:18:59.463Z,47.94
2023-03-18T17:24:03.084Z,48.29
2023-03-18T17:29:06.260Z,48.79
2023-03-18T17:34:14.124Z,48.93
2023-03-18T17:39:17.490Z,49.26
2023-03-18T17:44:29.660Z,49.35
2023-03-18T17:49:32.831Z,49.64
2023-03-18T17:54:36.161Z,49.88
2023-03-18T17:59:39.098Z,50.15
2023-03-18T18:04:43.359Z,50.44
2023-03-18T18:09:47.032Z,50.78
2023-03-18T18:14:50.147Z,50.97
2023-03-18T18:19:53.055Z,50.77
2023-03-18T18:24:57.929Z,51.22
2023-03-18T18:30:00.872Z,51.38
2023-03-18T18:35:04.239Z,51.42
2023-03-18T18:40:08.073Z,51.51
2023-03-18T18:45:19.269Z,51.67
2023-03-18T18:50:35.487Z,51.91
2023-03-18T18:55:38.977Z,52.30
2023-03-18T19:00:41.957Z,52.56
2023-03-18T19:05:49.241Z,52.60
2023-03-18T19:10:58.195Z,52.81
2023-03-18T19:16:05.131Z,52.66
2023-03-18T19:21:08.254Z,53.05
2023-03-18T19:26:14.687Z,53.18
2023-03-18T19:31:30.838Z,53.15
2023-03-18T19:36:41.171Z,53.40
2023-03-18T19:41:47.234Z,53.50
2023-03-18T19:46:54.088Z,53.40
2023-03-18T19:51:57.164Z,53.35
2023-03-18T19:57:12.408Z,53.42
2023-03-18T20:02:31.466Z,53.77
2023-03-18T20:07:34.489Z,53.96
2023-03-18T20:12:41.171Z,54.03
2023-03-18T20:17:49.806Z,53.87
2023-03-18T20:22:55.707Z,54.04
2023-03-18T20:27:59.407Z,54.03
2023-03-18T20:33:04.469Z,54.03
2023-03-18T20:38:14.220Z,54.39
2023-03-18T20:43:19.560Z,54.33
2023-03-18T20:48:24.228Z,54.54
2023-03-18T20:53:32.096Z,54.64
2023-03-18T20:58:35.057Z,54.73
2023-03-18T21:03:38.371Z,54.67
2023-03-18T21:08:42.067Z,54.81
2023-03-18T21:13:45.352Z,55.03
2023-03-18T21:18:49.935Z,54.87
2023-03-18T21:23:54.245Z,55.24
2023-03-18T21:28:57.675Z,55.35
2023-03-18T21:34:01.141Z,55.78
2023-03-18T21:39:04.482Z,55.68
2023-03-18T21:44:11.623Z,56.07
2023-03-18T21:49:14.460Z,56.13
2023-03-18T21:54:21.466Z,56.40
2023-03-18T21:59:24.399Z,56.63
2023-03-18T22:04:28.234Z,56.69
2023-03-18T22:09:31.494Z,57.01
2023-03-18T22:14:34.349Z,57.32
2023-03-18T22:19:37.210Z,57.58
2023-03-18T22:24:40.031Z,57.87
2023-03-18T22:29:42.959Z,57.92
2023-03-18T22:34:46.109Z,58.58
2023-03-18T22:39:50.036Z,59.21
2023-03-18T22:44:53.576Z,59.84
2023-03-18T22:49:56.447Z,60.78
2023-03-18T22:55:04.012Z,61.64
2023-03-18T23:00:22.211Z,61.87
2023-03-18T23:05:25.118Z,61.88
2023-03-18T23:10:28.641Z,61.91
2023-03-18T23:15:31.739Z,61.71
2023-03-18T23:20:35.493Z,61.78
2023-03-18T23:25:40.936Z,62.09
2023-03-18T23:30:49.130Z,62.13
2023-03-18T23:35:52.137Z,61.94
2023-03-18T23:40:55.054Z,61.78
2023-03-18T23:45:58.182Z,61.60
2023-03-18T23:51:01.337Z,61.54
2023-03-18T23:56:04.404Z,61.49
